Troy, Ohio
Current Conditions -  °F | °C
As of 3:56 PM on Friday 19 Dec 2014 (Local Time) from KDAY Reporting Station
Haze Haze  
Wind Chill: 26°   Ceiling: 2200
Heat Index: 31°   Visibility: 6mi
Dew Point: 24°   Wind: 5mph
Humidity: 76%   Direction: 340°NNW
Pressure: 30.25"   Gusts: NA
Location:  40.04°N, 84.2°W
Report Text: KDAY 192056Z 34004KT 6SM HZ FEW015 OVC022 M01/M04 A3025 RMK AO2 SLP255 T10061044 51001
Loading
Personal Weather Stations






























Interactive Weather Map New forecast layout! Learn more

10-Day Weather Forecast

Advertisements
Track Severe Weather on mobile